createdAt,value
2023-01-17T00:00:54.209Z,5.76
2023-01-17T00:03:30.689Z,5.74
2023-01-17T00:06:22.567Z,5.73
2023-01-17T00:09:12.117Z,5.73
2023-01-17T00:11:44.737Z,5.71
2023-01-17T00:14:16.913Z,5.71
2023-01-17T00:16:49.102Z,5.71
2023-01-17T00:19:39.219Z,5.69
2023-01-17T00:22:38.875Z,5.68
2023-01-17T00:25:31.074Z,5.66
2023-01-17T00:28:02.440Z,5.66
2023-01-17T00:30:33.906Z,5.67
2023-01-17T00:33:05.868Z,5.66
2023-01-17T00:35:36.865Z,5.67
2023-01-17T00:38:09.793Z,5.68
2023-01-17T00:40:42.380Z,5.67
2023-01-17T00:43:33.558Z,5.69
2023-01-17T00:46:23.823Z,5.70
2023-01-17T00:49:13.432Z,5.71
2023-01-17T00:52:03.036Z,5.71
2023-01-17T00:54:52.957Z,5.73
2023-01-17T00:57:42.561Z,5.76
2023-01-17T01:00:33.966Z,5.78
2023-01-17T01:03:28.985Z,5.79
2023-01-17T01:06:22.577Z,5.78
2023-01-17T01:09:12.793Z,5.79
2023-01-17T01:12:04.727Z,5.80
2023-01-17T01:14:54.283Z,5.82
2023-01-17T01:17:43.943Z,5.82
2023-01-17T01:20:34.082Z,5.80
2023-01-17T01:23:25.429Z,5.80
2023-01-17T01:26:14.985Z,5.78
2023-01-17T01:29:04.521Z,5.78
2023-01-17T01:31:54.187Z,5.78
2023-01-17T01:34:26.500Z,5.77
2023-01-17T01:36:58.691Z,5.75
2023-01-17T01:39:30.902Z,5.74
2023-01-17T01:42:03.192Z,5.72
2023-01-17T01:44:52.688Z,5.72
2023-01-17T01:47:30.185Z,5.70
2023-01-17T01:50:04.764Z,5.68
2023-01-17T01:52:40.595Z,5.68
2023-01-17T01:55:16.460Z,5.69
2023-01-17T01:57:50.974Z,5.67
2023-01-17T02:00:27.842Z,5.64
2023-01-17T02:03:03.728Z,5.60
2023-01-17T02:05:36.818Z,5.55
2023-01-17T02:08:12.114Z,5.52
2023-01-17T02:10:45.249Z,5.50
2023-01-17T02:13:20.695Z,5.45
2023-01-17T02:16:04.166Z,5.42
2023-01-17T02:18:50.383Z,5.39
2023-01-17T02:21:27.504Z,5.35
2023-01-17T02:24:34.668Z,5.32
2023-01-17T02:27:14.391Z,5.29
2023-01-17T02:30:21.319Z,5.26
2023-01-17T02:33:17.794Z,5.23
2023-01-17T02:35:59.776Z,5.21
2023-01-17T02:38:40.913Z,5.20
2023-01-17T02:41:19.727Z,5.20
2023-01-17T02:43:53.476Z,5.21
2023-01-17T02:46:26.019Z,5.19
2023-01-17T02:49:00.479Z,5.16
2023-01-17T02:51:52.458Z,5.15
2023-01-17T02:54:49.191Z,5.12
2023-01-17T02:57:27.019Z,5.10
2023-01-17T03:00:06.644Z,5.08
2023-01-17T03:02:47.380Z,5.05
2023-01-17T03:05:23.405Z,5.02
2023-01-17T03:07:58.008Z,4.96
2023-01-17T03:10:32.316Z,4.99
2023-01-17T03:13:05.478Z,4.95
2023-01-17T03:15:37.726Z,4.91
2023-01-17T03:18:14.028Z,4.89
2023-01-17T03:20:46.362Z,4.86
2023-01-17T03:23:18.551Z,4.85
2023-01-17T03:25:50.782Z,4.82
2023-01-17T03:28:23.149Z,4.82
2023-01-17T03:30:55.504Z,4.82
2023-01-17T03:33:28.828Z,4.81
2023-01-17T03:36:01.027Z,4.81
2023-01-17T03:38:33.305Z,4.82
2023-01-17T03:41:05.610Z,4.81
2023-01-17T03:43:38.820Z,4.79
2023-01-17T03:46:22.443Z,4.78
2023-01-17T03:48:54.828Z,4.77
2023-01-17T03:51:27.243Z,4.77
2023-01-17T03:53:59.456Z,4.77
2023-01-17T03:56:31.668Z,4.76
2023-01-17T03:59:03.948Z,4.76
2023-01-17T04:01:36.252Z,4.75
2023-01-17T04:04:08.536Z,4.74
2023-01-17T04:06:40.860Z,4.75
2023-01-17T04:09:13.186Z,4.74
2023-01-17T04:11:45.458Z,4.75
2023-01-17T04:14:17.733Z,4.75
2023-01-17T04:16:50.025Z,4.76
2023-01-17T04:19:22.688Z,4.77
2023-01-17T04:21:54.966Z,4.78
2023-01-17T04:24:27.121Z,4.79
2023-01-17T04:26:59.832Z,4.82
2023-01-17T04:29:32.021Z,4.85
2023-01-17T04:32:04.292Z,4.85
2023-01-17T04:34:36.527Z,4.84
2023-01-17T04:37:08.755Z,4.88
2023-01-17T04:39:40.948Z,4.90
2023-01-17T04:42:13.123Z,4.91
2023-01-17T04:44:45.380Z,4.93
2023-01-17T04:47:17.563Z,4.94
2023-01-17T04:49:49.968Z,4.98
2023-01-17T04:52:22.881Z,5.02
2023-01-17T04:54:55.124Z,5.06
2023-01-17T04:57:27.544Z,5.10
2023-01-17T05:00:00.019Z,5.14
2023-01-17T05:02:32.355Z,5.17
2023-01-17T05:05:04.632Z,5.19
2023-01-17T05:07:36.915Z,5.21
2023-01-17T05:10:11.032Z,5.25
2023-01-17T05:12:43.331Z,5.28
2023-01-17T05:15:15.784Z,5.32
2023-01-17T05:17:47.962Z,5.36
2023-01-17T05:20:20.812Z,5.39
2023-01-17T05:22:56.669Z,5.40
2023-01-17T05:25:28.332Z,5.44
2023-01-17T05:28:01.428Z,5.43
2023-01-17T05:30:35.216Z,5.43
2023-01-17T05:33:09.577Z,5.44
2023-01-17T05:35:41.865Z,5.43
2023-01-17T05:38:14.200Z,5.40
2023-01-17T05:40:46.435Z,5.39
2023-01-17T05:43:19.784Z,5.33
2023-01-17T05:45:52.106Z,5.32
2023-01-17T05:48:24.383Z,5.31
2023-01-17T05:50:56.596Z,5.31
2023-01-17T05:53:29.260Z,5.31
2023-01-17T05:56:01.486Z,5.32
2023-01-17T05:58:33.828Z,5.33
2023-01-17T06:01:06.261Z,5.34
2023-01-17T06:03:38.566Z,5.36
2023-01-17T06:06:11.094Z,5.35
2023-01-17T06:08:43.265Z,5.36
2023-01-17T06:11:15.562Z,5.37
2023-01-17T06:13:49.247Z,5.38
2023-01-17T06:16:21.452Z,5.38
2023-01-17T06:18:54.493Z,5.40
2023-01-17T06:21:26.764Z,5.40
2023-01-17T06:23:59.226Z,5.42
2023-01-17T06:26:31.622Z,5.44
2023-01-17T06:29:04.282Z,5.43
2023-01-17T06:31:37.286Z,5.46
2023-01-17T06:34:09.549Z,5.49
2023-01-17T06:36:41.920Z,5.52
2023-01-17T06:39:15.179Z,5.54
2023-01-17T06:41:47.505Z,5.59
2023-01-17T06:44:19.866Z,5.62
2023-01-17T06:46:52.182Z,5.65
2023-01-17T06:49:24.532Z,5.68
2023-01-17T06:51:56.810Z,5.75
2023-01-17T06:54:29.086Z,5.79
2023-01-17T06:57:01.419Z,5.80
2023-01-17T06:59:33.705Z,5.81
2023-01-17T07:02:06.118Z,5.84
2023-01-17T07:04:38.941Z,5.88
2023-01-17T07:07:11.586Z,5.92
2023-01-17T07:09:44.161Z,5.95
2023-01-17T07:12:16.866Z,5.97
2023-01-17T07:14:49.068Z,5.99
2023-01-17T07:17:21.252Z,5.98
2023-01-17T07:19:53.550Z,6.04
2023-01-17T07:22:25.928Z,6.03
2023-01-17T07:24:59.700Z,6.03
2023-01-17T07:27:33.705Z,6.04
2023-01-17T07:30:06.916Z,6.03
2023-01-17T07:32:39.271Z,6.05
2023-01-17T07:35:12.136Z,6.08
2023-01-17T07:37:50.238Z,6.08
2023-01-17T07:40:23.735Z,6.10
2023-01-17T07:43:01.544Z,6.14
2023-01-17T07:45:33.825Z,6.17
2023-01-17T07:48:06.458Z,6.20
2023-01-17T07:50:39.133Z,6.23
2023-01-17T07:53:13.223Z,6.26
2023-01-17T07:55:45.805Z,6.27
2023-01-17T07:58:18.322Z,6.32
2023-01-17T08:00:50.763Z,6.37
2023-01-17T08:03:23.095Z,6.42
2023-01-17T08:05:57.780Z,6.45
2023-01-17T08:08:30.735Z,6.48
2023-01-17T08:11:03.054Z,6.48
2023-01-17T08:13:35.317Z,6.50
2023-01-17T08:16:08.797Z,6.54
2023-01-17T08:18:41.510Z,6.57
2023-01-17T08:21:17.883Z,6.60
2023-01-17T08:23:52.469Z,6.62
2023-01-17T08:26:25.128Z,6.64
2023-01-17T08:29:01.142Z,6.71
2023-01-17T08:31:35.725Z,6.77
2023-01-17T08:34:07.920Z,6.86
2023-01-17T08:36:40.174Z,6.95
2023-01-17T08:39:13.193Z,7.03
2023-01-17T08:41:45.486Z,7.10
2023-01-17T08:44:19.910Z,7.16
2023-01-17T08:46:52.297Z,7.21
2023-01-17T08:49:24.558Z,7.32
2023-01-17T08:51:56.908Z,7.44
2023-01-17T08:54:29.659Z,7.59
2023-01-17T08:57:03.526Z,7.70
2023-01-17T08:59:35.838Z,7.87
2023-01-17T09:02:15.140Z,8.02
2023-01-17T09:04:48.748Z,8.11
2023-01-17T09:07:22.331Z,8.17
2023-01-17T09:09:54.686Z,8.24
2023-01-17T09:12:26.883Z,8.30
2023-01-17T09:14:59.040Z,8.34
2023-01-17T09:17:31.259Z,8.38
2023-01-17T09:20:03.432Z,8.47
2023-01-17T09:22:36.196Z,8.58
2023-01-17T09:25:10.159Z,8.63
2023-01-17T09:27:45.546Z,8.70
2023-01-17T09:30:19.036Z,8.75
2023-01-17T09:32:56.356Z,8.77
2023-01-17T09:35:28.601Z,8.86
2023-01-17T09:38:00.888Z,8.91
2023-01-17T09:40:33.301Z,8.98
2023-01-17T09:43:16.175Z,9.08
2023-01-17T09:45:49.135Z,9.18
2023-01-17T09:48:33.113Z,9.23
2023-01-17T09:51:09.765Z,9.26
2023-01-17T09:53:44.475Z,9.28
2023-01-17T09:56:21.163Z,9.28
2023-01-17T09:59:05.671Z,9.29
2023-01-17T10:01:42.973Z,9.29
2023-01-17T10:04:29.245Z,9.30
2023-01-17T10:07:12.766Z,9.30
2023-01-17T10:10:11.249Z,9.30
2023-01-17T10:12:54.846Z,9.31
2023-01-17T10:15:47.098Z,9.27
2023-01-17T10:18:43.081Z,9.26
2023-01-17T10:21:22.179Z,9.26
2023-01-17T10:24:16.670Z,9.26
2023-01-17T10:26:52.826Z,9.32
2023-01-17T10:29:29.420Z,9.40
2023-01-17T10:32:02.944Z,9.53
2023-01-17T10:34:43.881Z,9.66
2023-01-17T10:37:22.176Z,9.84
2023-01-17T10:39:58.432Z,9.97
2023-01-17T10:42:39.218Z,10.08
2023-01-17T10:45:21.741Z,10.20
2023-01-17T10:48:02.727Z,10.32
2023-01-17T10:50:43.134Z,10.41
2023-01-17T10:53:24.462Z,10.51
2023-01-17T10:55:56.651Z,10.64
2023-01-17T10:58:29.485Z,10.73
2023-01-17T11:01:04.054Z,10.81
2023-01-17T11:03:37.336Z,10.87
2023-01-17T11:06:21.281Z,10.98
2023-01-17T11:08:56.504Z,11.09
2023-01-17T11:11:32.132Z,11.19
2023-01-17T11:14:20.650Z,11.30
2023-01-17T11:17:05.442Z,11.49
2023-01-17T11:19:39.623Z,11.69
2023-01-17T11:22:17.343Z,11.82
2023-01-17T11:24:56.257Z,11.93
2023-01-17T11:27:31.121Z,12.02
2023-01-17T11:30:16.960Z,12.13
2023-01-17T11:32:57.506Z,12.25
2023-01-17T11:35:32.281Z,12.34
2023-01-17T11:38:16.044Z,12.43
2023-01-17T11:40:49.725Z,12.50
2023-01-17T11:43:24.914Z,12.55
2023-01-17T11:46:17.109Z,12.60
2023-01-17T11:48:55.975Z,12.66
2023-01-17T11:51:31.420Z,12.74
2023-01-17T11:54:19.478Z,12.75
2023-01-17T11:56:57.993Z,12.78
2023-01-17T11:59:35.266Z,12.83
2023-01-17T12:02:33.301Z,12.89
2023-01-17T12:05:18.698Z,12.96
2023-01-17T12:08:00.315Z,13.03
2023-01-17T12:10:40.267Z,13.07
2023-01-17T12:13:41.525Z,13.20
2023-01-17T12:16:33.830Z,13.28
2023-01-17T12:19:32.476Z,13.39
2023-01-17T12:22:23.694Z,13.47
2023-01-17T12:25:25.727Z,13.53
2023-01-17T12:28:19.430Z,13.58
2023-01-17T12:31:04.964Z,13.61
2023-01-17T12:33:48.363Z,13.65
2023-01-17T12:36:33.584Z,13.70
2023-01-17T12:39:08.095Z,13.78
2023-01-17T12:41:52.100Z,13.83
2023-01-17T12:44:34.603Z,13.87
2023-01-17T12:47:08.512Z,13.90
2023-01-17T12:49:47.112Z,13.94
2023-01-17T12:52:25.185Z,14.01
2023-01-17T12:55:04.321Z,14.06
2023-01-17T12:57:41.236Z,14.10
2023-01-17T13:00:23.253Z,14.14
2023-01-17T13:03:05.265Z,14.16
2023-01-17T13:05:44.958Z,14.21
2023-01-17T13:08:27.271Z,14.24
2023-01-17T13:11:05.555Z,14.29
2023-01-17T13:13:39.296Z,14.32
2023-01-17T13:16:16.341Z,14.35
2023-01-17T13:18:50.400Z,14.39
2023-01-17T13:21:33.491Z,14.38
2023-01-17T13:24:28.002Z,14.35
2023-01-17T13:27:17.969Z,14.34
2023-01-17T13:30:04.803Z,14.33
2023-01-17T13:33:12.726Z,14.30
2023-01-17T13:35:58.213Z,14.29
2023-01-17T13:38:55.076Z,14.26
2023-01-17T13:41:46.936Z,14.21
2023-01-17T13:44:25.611Z,14.18
2023-01-17T13:47:04.307Z,14.15
2023-01-17T13:49:56.806Z,14.12
2023-01-17T13:52:33.848Z,14.08
2023-01-17T13:55:07.979Z,14.03
2023-01-17T13:57:42.327Z,13.99
2023-01-17T14:00:59.218Z,13.95
2023-01-17T14:04:08.961Z,13.89
2023-01-17T14:06:44.950Z,13.85
2023-01-17T14:09:23.347Z,13.83
2023-01-17T14:12:02.207Z,13.80
2023-01-17T14:14:48.861Z,13.78
2023-01-17T14:17:49.216Z,13.76
2023-01-17T14:21:00.778Z,13.71
2023-01-17T14:23:51.767Z,13.65
2023-01-17T14:26:30.389Z,13.60
2023-01-17T14:29:40.425Z,13.57
2023-01-17T14:32:16.670Z,13.53
2023-01-17T14:34:50.973Z,13.47
2023-01-17T14:37:31.406Z,13.40
2023-01-17T14:40:14.508Z,13.32
2023-01-17T14:42:48.571Z,13.23
2023-01-17T14:45:28.248Z,13.15
2023-01-17T14:48:02.967Z,13.05
2023-01-17T14:50:39.763Z,12.96
2023-01-17T14:53:19.599Z,12.90
2023-01-17T14:55:57.768Z,12.83
2023-01-17T14:58:32.171Z,12.75
2023-01-17T15:01:08.182Z,12.66
2023-01-17T15:03:46.188Z,12.58
2023-01-17T15:06:22.211Z,12.52
2023-01-17T15:08:55.146Z,12.44
2023-01-17T15:11:30.358Z,12.34
2023-01-17T15:14:06.327Z,12.26
2023-01-17T15:16:41.244Z,12.17
2023-01-17T15:19:15.999Z,12.09
2023-01-17T15:21:50.751Z,12.02
2023-01-17T15:24:27.733Z,11.97
2023-01-17T15:27:00.135Z,11.90
2023-01-17T15:29:35.216Z,11.84
2023-01-17T15:32:09.335Z,11.78
2023-01-17T15:34:45.794Z,11.71
2023-01-17T15:37:32.708Z,11.65
2023-01-17T15:40:18.841Z,11.58
2023-01-17T15:42:51.883Z,11.52
2023-01-17T15:45:27.467Z,11.44
2023-01-17T15:48:19.800Z,11.39
2023-01-17T15:51:00.510Z,11.32
2023-01-17T15:53:34.714Z,11.25
2023-01-17T15:59:30.669Z,11.14
2023-01-17T16:02:02.979Z,11.03
2023-01-17T16:04:37.861Z,10.96
2023-01-17T16:07:20.412Z,10.90
2023-01-17T16:09:52.799Z,10.84
2023-01-17T16:12:25.052Z,10.76
2023-01-17T16:15:11.220Z,10.71
2023-01-17T16:17:48.319Z,10.65
2023-01-17T16:20:26.106Z,10.61
2023-01-17T16:23:00.307Z,10.57
2023-01-17T16:25:33.510Z,10.52
2023-01-17T16:28:06.543Z,10.48
2023-01-17T16:30:39.152Z,10.44
2023-01-17T16:33:14.373Z,10.41
2023-01-17T16:35:46.831Z,10.37
2023-01-17T16:38:19.925Z,10.34
2023-01-17T16:40:52.144Z,10.31
2023-01-17T16:43:24.358Z,10.29
2023-01-17T16:45:56.634Z,10.29
2023-01-17T16:48:28.845Z,10.29
2023-01-17T16:51:05.898Z,10.28
2023-01-17T16:53:38.634Z,10.26
2023-01-17T16:56:14.134Z,10.27
2023-01-17T16:58:46.520Z,10.26
2023-01-17T17:01:21.393Z,10.25
2023-01-17T17:03:53.712Z,10.25
2023-01-17T17:06:26.008Z,10.24
2023-01-17T17:08:59.889Z,10.22
2023-01-17T17:11:32.176Z,10.20
2023-01-17T17:14:04.900Z,10.19
2023-01-17T17:16:37.229Z,10.17
2023-01-17T17:19:09.764Z,10.17
2023-01-17T17:21:42.010Z,10.15
2023-01-17T17:24:16.094Z,10.12
2023-01-17T17:26:48.386Z,10.09
2023-01-17T17:29:20.829Z,10.06
2023-01-17T17:31:53.958Z,10.02
2023-01-17T17:34:27.764Z,10.00
2023-01-17T17:37:00.225Z,9.98
2023-01-17T17:39:33.417Z,9.97
2023-01-17T17:42:06.049Z,9.93
2023-01-17T17:44:38.546Z,9.94
2023-01-17T17:47:13.062Z,9.93
2023-01-17T17:49:45.297Z,9.92
2023-01-17T17:52:17.650Z,9.90
2023-01-17T17:54:50.704Z,9.89
2023-01-17T17:57:23.010Z,9.90
2023-01-17T17:59:56.831Z,9.90
2023-01-17T18:02:29.179Z,9.91
2023-01-17T18:05:02.486Z,9.92
2023-01-17T18:07:35.593Z,9.91
2023-01-17T18:10:09.951Z,9.92
2023-01-17T18:12:42.240Z,9.91
2023-01-17T18:15:14.731Z,9.91
2023-01-17T18:17:47.526Z,9.89
2023-01-17T18:20:20.272Z,9.90
2023-01-17T18:22:53.755Z,9.89
2023-01-17T18:25:26.021Z,9.89
2023-01-17T18:27:58.786Z,9.87
2023-01-17T18:30:38.526Z,9.86
2023-01-17T18:33:10.877Z,9.85
2023-01-17T18:35:43.664Z,9.85
2023-01-17T18:38:20.952Z,9.83
2023-01-17T18:40:54.591Z,9.82
2023-01-17T18:43:28.889Z,9.82
2023-01-17T18:46:01.342Z,9.80
2023-01-17T18:48:33.657Z,9.79
2023-01-17T18:51:08.297Z,9.77
2023-01-17T18:53:41.800Z,9.75
2023-01-17T18:56:17.269Z,9.74
2023-01-17T18:58:51.548Z,9.73
2023-01-17T19:01:25.598Z,9.73
2023-01-17T19:03:59.627Z,9.74
2023-01-17T19:06:33.995Z,9.75
2023-01-17T19:09:07.753Z,9.74
2023-01-17T19:11:40.581Z,9.73
2023-01-17T19:14:14.527Z,9.72
2023-01-17T19:16:46.859Z,9.73
2023-01-17T19:19:19.157Z,9.72
2023-01-17T19:21:53.853Z,9.72
2023-01-17T19:24:26.590Z,9.71
2023-01-17T19:26:58.941Z,9.70
2023-01-17T19:29:31.252Z,9.70
2023-01-17T19:32:03.478Z,9.68
2023-01-17T19:34:35.810Z,9.68
2023-01-17T19:37:08.133Z,9.67
2023-01-17T19:39:40.396Z,9.67
2023-01-17T19:42:15.695Z,9.69
2023-01-17T19:44:48.005Z,9.69
2023-01-17T19:47:20.348Z,9.71
2023-01-17T19:49:52.645Z,9.74
2023-01-17T19:52:26.356Z,9.79
2023-01-17T19:54:58.662Z,9.82
2023-01-17T19:57:35.042Z,9.85
2023-01-17T20:00:13.679Z,9.88
2023-01-17T20:02:46.076Z,9.91
2023-01-17T20:05:19.687Z,9.93
2023-01-17T20:07:51.998Z,9.97
2023-01-17T20:10:25.354Z,10.00
2023-01-17T20:12:57.558Z,10.02
2023-01-17T20:15:31.133Z,10.05
2023-01-17T20:18:05.023Z,10.06
2023-01-17T20:20:46.115Z,10.08
2023-01-17T20:23:28.567Z,10.08
2023-01-17T20:26:01.712Z,10.08
2023-01-17T20:28:35.839Z,10.08
2023-01-17T20:31:10.093Z,10.08
2023-01-17T20:33:43.956Z,10.07
2023-01-17T20:36:17.959Z,10.07
2023-01-17T20:38:50.522Z,10.07
2023-01-17T20:41:24.739Z,10.06
2023-01-17T20:43:58.406Z,10.04
2023-01-17T20:46:35.412Z,10.02
2023-01-17T20:49:10.192Z,10.01
2023-01-17T20:51:44.312Z,9.99
2023-01-17T20:54:18.885Z,9.97
2023-01-17T20:56:51.585Z,9.96
2023-01-17T20:59:24.418Z,9.95
2023-01-17T21:01:56.897Z,9.94
2023-01-17T21:04:29.460Z,9.89
2023-01-17T21:07:01.795Z,9.90
2023-01-17T21:09:34.599Z,9.88
2023-01-17T21:12:07.096Z,9.86
2023-01-17T21:14:40.764Z,9.85
2023-01-17T21:17:16.174Z,9.85
2023-01-17T21:19:48.405Z,9.84
2023-01-17T21:22:20.772Z,9.85
2023-01-17T21:24:54.126Z,9.85
2023-01-17T21:27:26.323Z,9.85
2023-01-17T21:29:59.526Z,9.83
2023-01-17T21:32:31.873Z,9.86
2023-01-17T21:35:04.126Z,9.86
2023-01-17T21:37:36.586Z,9.86
2023-01-17T21:40:10.485Z,9.87
2023-01-17T21:42:42.770Z,9.87
2023-01-17T21:45:15.377Z,9.88
2023-01-17T21:47:48.069Z,9.88
2023-01-17T21:50:32.675Z,9.87
2023-01-17T21:53:06.052Z,9.89
2023-01-17T21:55:55.929Z,9.89
2023-01-17T21:58:46.466Z,9.90
2023-01-17T22:01:22.106Z,9.91
2023-01-17T22:03:56.941Z,9.92
2023-01-17T22:06:30.921Z,9.93
2023-01-17T22:09:03.231Z,9.95
2023-01-17T22:11:37.450Z,9.96
2023-01-17T22:14:09.838Z,9.98
2023-01-17T22:16:42.168Z,10.00
2023-01-17T22:19:14.511Z,10.03
2023-01-17T22:21:46.783Z,10.03
2023-01-17T22:24:19.328Z,10.06
2023-01-17T22:26:51.588Z,10.06
2023-01-17T22:29:23.796Z,10.08
2023-01-17T22:31:55.970Z,10.08
2023-01-17T22:34:28.477Z,10.09
2023-01-17T22:37:02.540Z,10.11
2023-01-17T22:39:34.719Z,10.11
2023-01-17T22:42:07.366Z,10.13
2023-01-17T22:44:39.683Z,10.14
2023-01-17T22:47:12.110Z,10.16
2023-01-17T22:49:44.389Z,10.17
2023-01-17T22:52:16.686Z,10.19
2023-01-17T22:54:49.092Z,10.20
2023-01-17T22:57:21.700Z,10.22
2023-01-17T22:59:54.011Z,10.23
2023-01-17T23:02:26.345Z,10.25
2023-01-17T23:04:58.722Z,10.24
2023-01-17T23:07:43.030Z,10.29
2023-01-17T23:10:38.330Z,10.32
2023-01-17T23:13:12.501Z,10.34
2023-01-17T23:16:02.178Z,10.34
2023-01-17T23:19:03.600Z,10.32
2023-01-17T23:21:49.692Z,10.30
2023-01-17T23:24:21.954Z,10.28
2023-01-17T23:27:08.048Z,10.24
2023-01-17T23:29:40.251Z,10.21
2023-01-17T23:32:12.567Z,10.20
2023-01-17T23:34:44.888Z,10.17
2023-01-17T23:37:17.120Z,10.14
2023-01-17T23:39:49.401Z,10.08
2023-01-17T23:42:39.083Z,10.03
2023-01-17T23:45:13.005Z,9.95
2023-01-17T23:47:47.430Z,9.84
2023-01-17T23:50:20.078Z,9.83
2023-01-17T23:52:52.392Z,9.78
2023-01-17T23:55:24.565Z,9.71
2023-01-17T23:57:56.800Z,9.67
